KHUF/HUF METAR and TAF weather

Enter ICAO airport designator
Station Type Date Time Source
KHUF METAR 2020/06/03 15:53 UTC NOAA

KHUF 031553Z 28005KT 10SM CLR 28/19 A2991 RMK AO2 PRESFR SLP123 T02830194


Station Type Date Time Source
KHUF Decoded METAR 2020/06/03 15:53 UTC NOAA

TERRE HAUTE INTERNATIONAL -HULMAN FLD, IN, United States (KHUF) 39-27N 087-19W 179M
Jun 03, 2020 - 11:53 AM EDT / 2020.06.03 1553 UTC
Wind: from the W (280 degrees) at 6 MPH (5 KT):0
Visibility: 10 mile(s):0
Sky conditions: clear
Temperature: 82.9 F (28.3 C)
Dew Point: 66.9 F (19.4 C)
Relative Humidity: 58%
Pressure (altimeter): 29.91 in. Hg (1012 hPa)
Pressure tendency: falling rapidly
ob: KHUF 031553Z 28005KT 10SM CLR 28/19 A2991 RMK AO2 PRESFR SLP123 T02830194
cycle: 16

Station Type Date Time Source
KHUF TAF 2020/06/03 12:22 UTC NOAA

TAF KHUF 031120Z 0312/0412 23005KT P6SM FEW200
FM032000 25010G18KT P6SM FEW035 SCT050
FM032200 25009KT P6SM VCTS SCT035CB
FM040000 24006KT P6SM VCTS SCT035CB
FM040400 VRB04KT P6SM SCT050
FM041100 00000KT P6SM BKN030

Example: see airport list